sensor_id;sensor_type;location;lat;lon;timestamp;pressure;altitude;pressure_sealevel;temperature;humidity
47883;BME280;37739;50.350;7.578;2023-04-06T00:00:18;99985.69;;;6.17;48.78
47883;BME280;37739;50.350;7.578;2023-04-06T00:02:43;99980.34;;;6.12;49.67
47883;BME280;37739;50.350;7.578;2023-04-06T00:05:17;99973.81;;;6.02;49.75
47883;BME280;37739;50.350;7.578;2023-04-06T00:07:42;99975.81;;;5.93;49.94
47883;BME280;37739;50.350;7.578;2023-04-06T00:10:08;99968.72;;;5.87;50.13
47883;BME280;37739;50.350;7.578;2023-04-06T00:12:36;99960.16;;;5.87;50.10
47883;BME280;37739;50.350;7.578;2023-04-06T00:15:04;99964.22;;;5.83;49.95
47883;BME280;37739;50.350;7.578;2023-04-06T00:17:34;99968.06;;;5.77;50.54
47883;BME280;37739;50.350;7.578;2023-04-06T00:20:00;99966.91;;;5.71;50.58
47883;BME280;37739;50.350;7.578;2023-04-06T00:22:25;99963.22;;;5.66;50.21
47883;BME280;37739;50.350;7.578;2023-04-06T00:24:51;99960.69;;;5.66;50.14
47883;BME280;37739;50.350;7.578;2023-04-06T00:27:16;99955.69;;;5.68;50.54
47883;BME280;37739;50.350;7.578;2023-04-06T00:29:44;99955.31;;;5.62;50.55
47883;BME280;37739;50.350;7.578;2023-04-06T00:32:10;99953.47;;;5.59;50.24
47883;BME280;37739;50.350;7.578;2023-04-06T00:34:35;99950.38;;;5.50;51.16
47883;BME280;37739;50.350;7.578;2023-04-06T00:37:03;99944.59;;;5.53;50.72
47883;BME280;37739;50.350;7.578;2023-04-06T00:39:28;99943.09;;;5.56;50.40
47883;BME280;37739;50.350;7.578;2023-04-06T00:41:56;99947.94;;;5.51;50.79
47883;BME280;37739;50.350;7.578;2023-04-06T00:44:22;99931.59;;;5.48;50.60
47883;BME280;37739;50.350;7.578;2023-04-06T00:46:47;99930.91;;;5.50;50.24
47883;BME280;37739;50.350;7.578;2023-04-06T00:49:12;99933.38;;;5.49;50.52
47883;BME280;37739;50.350;7.578;2023-04-06T00:51:40;99920.34;;;5.44;50.57
47883;BME280;37739;50.350;7.578;2023-04-06T00:54:08;99931.25;;;5.42;51.10
47883;BME280;37739;50.350;7.578;2023-04-06T00:56:34;99929.19;;;5.36;51.49
47883;BME280;37739;50.350;7.578;2023-04-06T00:59:00;99924.13;;;5.36;51.23
47883;BME280;37739;50.350;7.578;2023-04-06T01:01:25;99922.88;;;5.29;51.70
47883;BME280;37739;50.350;7.578;2023-04-06T01:03:53;99919.88;;;5.22;52.05
47883;BME280;37739;50.350;7.578;2023-04-06T01:06:19;99914.19;;;5.26;51.83
47883;BME280;37739;50.350;7.578;2023-04-06T01:08:47;99913.22;;;5.24;52.02
47883;BME280;37739;50.350;7.578;2023-04-06T01:11:18;99909.97;;;5.26;52.24
47883;BME280;37739;50.350;7.578;2023-04-06T01:13:43;99908.75;;;5.20;53.08
47883;BME280;37739;50.350;7.578;2023-04-06T01:16:08;99911.09;;;5.17;52.82
47883;BME280;37739;50.350;7.578;2023-04-06T01:18:35;99902.50;;;5.15;52.00
47883;BME280;37739;50.350;7.578;2023-04-06T01:21:03;99905.75;;;5.12;52.44
47883;BME280;37739;50.350;7.578;2023-04-06T01:23:34;99898.88;;;5.11;51.84
47883;BME280;37739;50.350;7.578;2023-04-06T01:25:59;99906.03;;;5.03;52.22
47883;BME280;37739;50.350;7.578;2023-04-06T01:28:27;99888.25;;;5.03;52.14
47883;BME280;37739;50.350;7.578;2023-04-06T01:30:55;99892.25;;;5.00;52.10
47883;BME280;37739;50.350;7.578;2023-04-06T01:33:20;99895.59;;;4.99;51.79
47883;BME280;37739;50.350;7.578;2023-04-06T01:35:48;99896.22;;;4.95;52.35
47883;BME280;37739;50.350;7.578;2023-04-06T01:38:15;99887.41;;;4.89;52.67
47883;BME280;37739;50.350;7.578;2023-04-06T01:40:41;99886.91;;;4.95;52.47
47883;BME280;37739;50.350;7.578;2023-04-06T01:43:11;99886.03;;;4.95;52.27
47883;BME280;37739;50.350;7.578;2023-04-06T01:45:36;99883.91;;;4.87;52.73
47883;BME280;37739;50.350;7.578;2023-04-06T01:48:04;99882.22;;;4.88;52.51
47883;BME280;37739;50.350;7.578;2023-04-06T01:50:29;99886.44;;;4.87;52.72
47883;BME280;37739;50.350;7.578;2023-04-06T01:52:57;99883.03;;;4.87;52.07
47883;BME280;37739;50.350;7.578;2023-04-06T01:55:23;99879.69;;;4.88;52.33
47883;BME280;37739;50.350;7.578;2023-04-06T01:57:48;99881.00;;;4.81;52.70
47883;BME280;37739;50.350;7.578;2023-04-06T02:00:15;99876.31;;;4.74;52.71
47883;BME280;37739;50.350;7.578;2023-04-06T02:02:41;99882.88;;;4.70;53.26
47883;BME280;37739;50.350;7.578;2023-04-06T02:05:07;99873.66;;;4.72;52.59
47883;BME280;37739;50.350;7.578;2023-04-06T02:07:32;99871.03;;;4.71;52.42
47883;BME280;37739;50.350;7.578;2023-04-06T02:10:02;99872.22;;;4.63;52.84
47883;BME280;37739;50.350;7.578;2023-04-06T02:12:28;99872.22;;;4.63;52.65
47883;BME280;37739;50.350;7.578;2023-04-06T02:14:55;99870.47;;;4.62;52.93
47883;BME280;37739;50.350;7.578;2023-04-06T02:17:23;99866.88;;;4.58;52.84
47883;BME280;37739;50.350;7.578;2023-04-06T02:19:50;99867.53;;;4.56;53.38
47883;BME280;37739;50.350;7.578;2023-04-06T02:22:18;99868.16;;;4.51;52.89
47883;BME280;37739;50.350;7.578;2023-04-06T02:24:44;99864.63;;;4.49;53.02
47883;BME280;37739;50.350;7.578;2023-04-06T02:27:13;99864.16;;;4.42;54.28
47883;BME280;37739;50.350;7.578;2023-04-06T02:29:41;99866.00;;;4.44;53.92
47883;BME280;37739;50.350;7.578;2023-04-06T02:32:12;99865.22;;;4.45;54.52
47883;BME280;37739;50.350;7.578;2023-04-06T02:34:42;99871.19;;;4.46;53.54
47883;BME280;37739;50.350;7.578;2023-04-06T02:37:10;99865.03;;;4.42;53.34
47883;BME280;37739;50.350;7.578;2023-04-06T02:39:35;99871.56;;;4.39;53.33
47883;BME280;37739;50.350;7.578;2023-04-06T02:42:03;99856.44;;;4.40;53.45
47883;BME280;37739;50.350;7.578;2023-04-06T02:44:30;99871.56;;;4.39;53.19
47883;BME280;37739;50.350;7.578;2023-04-06T02:46:56;99866.13;;;4.32;53.08
47883;BME280;37739;50.350;7.578;2023-04-06T02:49:21;99861.72;;;4.30;53.84
47883;BME280;37739;50.350;7.578;2023-04-06T02:51:49;99866.59;;;4.27;54.07
47883;BME280;37739;50.350;7.578;2023-04-06T02:54:14;99871.69;;;4.27;53.68
47883;BME280;37739;50.350;7.578;2023-04-06T02:56:40;99864.06;;;4.27;53.66
47883;BME280;37739;50.350;7.578;2023-04-06T02:59:05;99868.75;;;4.21;53.35
47883;BME280;37739;50.350;7.578;2023-04-06T03:01:30;99864.97;;;4.14;53.90
47883;BME280;37739;50.350;7.578;2023-04-06T03:03:56;99864.75;;;4.11;54.30
47883;BME280;37739;50.350;7.578;2023-04-06T03:06:21;99862.22;;;4.11;53.34
47883;BME280;37739;50.350;7.578;2023-04-06T03:08:52;99864.50;;;4.06;54.10
47883;BME280;37739;50.350;7.578;2023-04-06T03:11:17;99865.56;;;4.10;53.11
47883;BME280;37739;50.350;7.578;2023-04-06T03:13:45;99865.75;;;4.13;53.16
47883;BME280;37739;50.350;7.578;2023-04-06T03:16:11;99861.34;;;4.10;52.82
47883;BME280;37739;50.350;7.578;2023-04-06T03:18:38;99862.91;;;4.08;54.05
47883;BME280;37739;50.350;7.578;2023-04-06T03:21:04;99872.97;;;4.07;53.75
47883;BME280;37739;50.350;7.578;2023-04-06T03:23:30;99864.16;;;4.02;54.45
47883;BME280;37739;50.350;7.578;2023-04-06T03:25:55;99865.06;;;4.02;54.13
47883;BME280;37739;50.350;7.578;2023-04-06T03:28:20;99858.00;;;3.98;53.84
47883;BME280;37739;50.350;7.578;2023-04-06T03:30:46;99864.66;;;3.96;54.41
47883;BME280;37739;50.350;7.578;2023-04-06T03:33:11;99870.91;;;3.88;55.18
47883;BME280;37739;50.350;7.578;2023-04-06T03:35:37;99863.41;;;3.89;54.75
47883;BME280;37739;50.350;7.578;2023-04-06T03:38:03;99865.63;;;3.85;54.82
47883;BME280;37739;50.350;7.578;2023-04-06T03:40:30;99868.75;;;3.81;54.96
47883;BME280;37739;50.350;7.578;2023-04-06T03:42:58;99868.47;;;3.76;54.64
47883;BME280;37739;50.350;7.578;2023-04-06T03:45:26;99875.78;;;3.71;54.79
47883;BME280;37739;50.350;7.578;2023-04-06T03:47:51;99872.81;;;3.65;55.81
47883;BME280;37739;50.350;7.578;2023-04-06T03:50:16;99867.34;;;3.59;55.95
47883;BME280;37739;50.350;7.578;2023-04-06T03:52:44;99872.25;;;3.56;55.40
47883;BME280;37739;50.350;7.578;2023-04-06T03:55:12;99872.50;;;3.47;55.66
47883;BME280;37739;50.350;7.578;2023-04-06T03:57:42;99870.53;;;3.43;55.71
47883;BME280;37739;50.350;7.578;2023-04-06T04:00:07;99874.94;;;3.46;55.70
47883;BME280;37739;50.350;7.578;2023-04-06T04:02:33;99872.75;;;3.39;55.62
47883;BME280;37739;50.350;7.578;2023-04-06T04:04:58;99876.09;;;3.38;56.31
47883;BME280;37739;50.350;7.578;2023-04-06T04:07:24;99874.41;;;3.38;55.84
47883;BME280;37739;50.350;7.578;2023-04-06T04:09:53;99880.19;;;3.36;56.82
47883;BME280;37739;50.350;7.578;2023-04-06T04:12:19;99874.78;;;3.31;56.93
47883;BME280;37739;50.350;7.578;2023-04-06T04:14:49;99882.09;;;3.26;56.16
47883;BME280;37739;50.350;7.578;2023-04-06T04:17:17;99885.97;;;3.21;56.88
47883;BME280;37739;50.350;7.578;2023-04-06T04:19:42;99883.91;;;3.15;57.37
47883;BME280;37739;50.350;7.578;2023-04-06T04:22:07;99887.91;;;3.12;57.32
47883;BME280;37739;50.350;7.578;2023-04-06T04:24:35;99890.44;;;3.12;57.52
47883;BME280;37739;50.350;7.578;2023-04-06T04:27:05;99884.38;;;3.10;56.55
47883;BME280;37739;50.350;7.578;2023-04-06T04:29:33;99897.88;;;2.97;58.78
47883;BME280;37739;50.350;7.578;2023-04-06T04:31:58;99892.81;;;2.97;57.07
47883;BME280;37739;50.350;7.578;2023-04-06T04:34:26;99887.63;;;2.95;56.98
47883;BME280;37739;50.350;7.578;2023-04-06T04:36:56;99893.25;;;2.91;57.96
47883;BME280;37739;50.350;7.578;2023-04-06T04:39:21;99886.22;;;2.87;58.12
47883;BME280;37739;50.350;7.578;2023-04-06T04:41:47;99886.00;;;2.84;58.07
47883;BME280;37739;50.350;7.578;2023-04-06T04:44:14;99895.50;;;2.87;57.88
47883;BME280;37739;50.350;7.578;2023-04-06T04:46:40;99896.03;;;2.83;57.92
47883;BME280;37739;50.350;7.578;2023-04-06T04:49:09;99889.78;;;2.78;57.76
47883;BME280;37739;50.350;7.578;2023-04-06T04:51:34;99895.72;;;2.78;58.70
47883;BME280;37739;50.350;7.578;2023-04-06T04:54:02;99891.09;;;2.72;58.51
47883;BME280;37739;50.350;7.578;2023-04-06T04:56:27;99891.22;;;2.74;58.35
47883;BME280;37739;50.350;7.578;2023-04-06T04:58:53;99894.50;;;2.73;59.10
47883;BME280;37739;50.350;7.578;2023-04-06T05:01:19;99889.44;;;2.73;58.81
47883;BME280;37739;50.350;7.578;2023-04-06T05:03:45;99889.03;;;2.67;58.22
47883;BME280;37739;50.350;7.578;2023-04-06T05:06:10;99889.81;;;2.66;59.28
47883;BME280;37739;50.350;7.578;2023-04-06T05:08:36;99897.31;;;2.64;59.34
47883;BME280;37739;50.350;7.578;2023-04-06T05:11:01;99901.94;;;2.58;60.10
47883;BME280;37739;50.350;7.578;2023-04-06T05:13:27;99897.63;;;2.57;60.33
47883;BME280;37739;50.350;7.578;2023-04-06T05:15:55;99901.03;;;2.58;60.57
47883;BME280;37739;50.350;7.578;2023-04-06T05:18:20;99908.22;;;2.51;60.48
47883;BME280;37739;50.350;7.578;2023-04-06T05:20:46;99911.53;;;2.50;60.77
47883;BME280;37739;50.350;7.578;2023-04-06T05:23:14;99904.25;;;2.55;59.63
47883;BME280;37739;50.350;7.578;2023-04-06T05:25:39;99900.50;;;2.50;61.22
47883;BME280;37739;50.350;7.578;2023-04-06T05:28:05;99897.97;;;2.50;60.91
47883;BME280;37739;50.350;7.578;2023-04-06T05:30:31;99904.47;;;2.58;60.94
47883;BME280;37739;50.350;7.578;2023-04-06T05:32:59;99902.59;;;2.55;61.41
47883;BME280;37739;50.350;7.578;2023-04-06T05:35:26;99902.81;;;2.59;60.15
47883;BME280;37739;50.350;7.578;2023-04-06T05:37:54;99901.84;;;2.45;62.10
47883;BME280;37739;50.350;7.578;2023-04-06T05:40:19;99905.91;;;2.54;60.35
47883;BME280;37739;50.350;7.578;2023-04-06T05:42:45;99902.69;;;2.57;61.00
47883;BME280;37739;50.350;7.578;2023-04-06T05:45:11;99903.94;;;2.50;60.79
47883;BME280;37739;50.350;7.578;2023-04-06T05:47:41;99907.34;;;2.51;60.92
47883;BME280;37739;50.350;7.578;2023-04-06T05:50:07;99906.09;;;2.58;60.88
47883;BME280;37739;50.350;7.578;2023-04-06T05:52:33;99903.78;;;2.61;60.94
47883;BME280;37739;50.350;7.578;2023-04-06T05:55:01;99899.50;;;2.71;61.13
47883;BME280;37739;50.350;7.578;2023-04-06T05:57:28;99904.06;;;2.77;61.70
47883;BME280;37739;50.350;7.578;2023-04-06T05:59:54;99908.63;;;2.81;60.67
47883;BME280;37739;50.350;7.578;2023-04-06T06:02:24;99906.69;;;2.90;61.20
47883;BME280;37739;50.350;7.578;2023-04-06T06:04:51;99909.56;;;2.95;60.41
47883;BME280;37739;50.350;7.578;2023-04-06T06:07:17;99908.75;;;2.96;60.38
47883;BME280;37739;50.350;7.578;2023-04-06T06:09:42;99915.59;;;2.97;61.13
47883;BME280;37739;50.350;7.578;2023-04-06T06:12:10;99913.50;;;3.03;60.79
47883;BME280;37739;50.350;7.578;2023-04-06T06:14:36;99911.25;;;3.08;60.74
47883;BME280;37739;50.350;7.578;2023-04-06T06:17:03;99908.94;;;3.11;60.54
47883;BME280;37739;50.350;7.578;2023-04-06T06:19:29;99910.16;;;3.16;60.13
47883;BME280;37739;50.350;7.578;2023-04-06T06:21:54;99912.97;;;3.21;60.10
47883;BME280;37739;50.350;7.578;2023-04-06T06:24:20;99902.09;;;3.22;59.95
47883;BME280;37739;50.350;7.578;2023-04-06T06:26:46;99901.41;;;3.24;59.74
47883;BME280;37739;50.350;7.578;2023-04-06T06:29:14;99909.41;;;3.30;59.94
47883;BME280;37739;50.350;7.578;2023-04-06T06:31:39;99910.78;;;3.39;59.93
47883;BME280;37739;50.350;7.578;2023-04-06T06:34:05;99905.19;;;3.43;60.07
47883;BME280;37739;50.350;7.578;2023-04-06T06:36:31;99908.78;;;3.46;60.32
47883;BME280;37739;50.350;7.578;2023-04-06T06:38:59;99903.81;;;3.48;59.92
47883;BME280;37739;50.350;7.578;2023-04-06T06:41:25;99907.75;;;3.56;59.47
47883;BME280;37739;50.350;7.578;2023-04-06T06:43:53;99909.22;;;3.52;58.76
47883;BME280;37739;50.350;7.578;2023-04-06T06:46:19;99908.41;;;3.53;59.01
47883;BME280;37739;50.350;7.578;2023-04-06T06:48:45;99913.41;;;3.65;59.44
47883;BME280;37739;50.350;7.578;2023-04-06T06:51:10;99907.97;;;3.72;59.54
47883;BME280;37739;50.350;7.578;2023-04-06T06:53:37;99910.16;;;3.80;58.95
47883;BME280;37739;50.350;7.578;2023-04-06T06:56:07;99904.50;;;3.84;59.05
47883;BME280;37739;50.350;7.578;2023-04-06T06:58:34;99904.13;;;3.91;58.86
47883;BME280;37739;50.350;7.578;2023-04-06T07:01:00;99907.81;;;3.96;58.86
47883;BME280;37739;50.350;7.578;2023-04-06T07:03:25;99906.47;;;4.01;58.12
47883;BME280;37739;50.350;7.578;2023-04-06T07:05:53;99907.66;;;4.06;58.19
47883;BME280;37739;50.350;7.578;2023-04-06T07:08:25;99909.78;;;4.13;58.17
47883;BME280;37739;50.350;7.578;2023-04-06T07:10:52;99905.28;;;4.23;57.16
47883;BME280;37739;50.350;7.578;2023-04-06T07:13:20;99905.88;;;4.32;56.92
47883;BME280;37739;50.350;7.578;2023-04-06T07:15:49;99909.13;;;4.43;56.97
47883;BME280;37739;50.350;7.578;2023-04-06T07:18:16;99905.38;;;4.51;56.47
47883;BME280;37739;50.350;7.578;2023-04-06T07:20:44;99898.34;;;4.60;56.36
47883;BME280;37739;50.350;7.578;2023-04-06T07:23:09;99898.97;;;4.71;56.36
47883;BME280;37739;50.350;7.578;2023-04-06T07:25:39;99896.75;;;4.76;55.92
47883;BME280;37739;50.350;7.578;2023-04-06T07:28:05;99897.63;;;4.76;56.37
47883;BME280;37739;50.350;7.578;2023-04-06T07:30:30;99902.19;;;4.82;56.02
47883;BME280;37739;50.350;7.578;2023-04-06T07:32:58;99901.00;;;4.90;55.18
47883;BME280;37739;50.350;7.578;2023-04-06T07:35:26;99894.91;;;5.01;54.32
47883;BME280;37739;50.350;7.578;2023-04-06T07:37:53;99883.34;;;5.06;53.81
47883;BME280;37739;50.350;7.578;2023-04-06T07:40:19;99889.78;;;5.15;53.86
47883;BME280;37739;50.350;7.578;2023-04-06T07:42:46;99899.03;;;5.27;53.36
47883;BME280;37739;50.350;7.578;2023-04-06T07:45:14;99893.38;;;5.33;53.14
47883;BME280;37739;50.350;7.578;2023-04-06T07:47:42;99899.31;;;5.47;52.60
47883;BME280;37739;50.350;7.578;2023-04-06T07:50:08;99903.28;;;5.57;52.65
47883;BME280;37739;50.350;7.578;2023-04-06T07:52:35;99901.09;;;5.63;52.75
47883;BME280;37739;50.350;7.578;2023-04-06T07:55:04;99891.06;;;5.81;52.59
47883;BME280;37739;50.350;7.578;2023-04-06T07:57:32;99897.06;;;5.96;52.46
47883;BME280;37739;50.350;7.578;2023-04-06T08:00:03;99886.63;;;6.06;51.54
47883;BME280;37739;50.350;7.578;2023-04-06T08:02:30;99895.81;;;6.19;51.52
47883;BME280;37739;50.350;7.578;2023-04-06T08:04:55;99891.44;;;6.32;51.29
47883;BME280;37739;50.350;7.578;2023-04-06T08:07:20;99878.38;;;6.42;51.37
47883;BME280;37739;50.350;7.578;2023-04-06T08:09:46;99877.41;;;6.55;51.60
47883;BME280;37739;50.350;7.578;2023-04-06T08:12:14;99881.88;;;6.75;51.19
47883;BME280;37739;50.350;7.578;2023-04-06T08:14:39;99883.41;;;6.88;51.07
47883;BME280;37739;50.350;7.578;2023-04-06T08:17:05;99887.41;;;6.99;51.18
47883;BME280;37739;50.350;7.578;2023-04-06T08:19:32;99876.09;;;7.11;50.47
47883;BME280;37739;50.350;7.578;2023-04-06T08:21:58;99877.75;;;7.26;49.86
47883;BME280;37739;50.350;7.578;2023-04-06T08:24:23;99880.22;;;7.41;49.65
47883;BME280;37739;50.350;7.578;2023-04-06T08:26:49;99880.69;;;7.51;49.82
47883;BME280;37739;50.350;7.578;2023-04-06T08:29:15;99875.25;;;7.61;49.14
47883;BME280;37739;50.350;7.578;2023-04-06T08:31:45;99875.13;;;7.76;49.14
47883;BME280;37739;50.350;7.578;2023-04-06T08:34:15;99877.50;;;7.89;48.55
47883;BME280;37739;50.350;7.578;2023-04-06T08:36:43;99872.13;;;8.02;48.50
47883;BME280;37739;50.350;7.578;2023-04-06T08:39:10;99881.44;;;8.18;47.88
47883;BME280;37739;50.350;7.578;2023-04-06T08:41:36;99872.72;;;8.33;47.95
47883;BME280;37739;50.350;7.578;2023-04-06T08:44:02;99871.00;;;8.50;47.01
47883;BME280;37739;50.350;7.578;2023-04-06T08:46:31;99871.78;;;8.67;47.03
47883;BME280;37739;50.350;7.578;2023-04-06T08:48:58;99873.50;;;8.86;46.82
47883;BME280;37739;50.350;7.578;2023-04-06T08:51:24;99878.97;;;9.13;46.45
47883;BME280;37739;50.350;7.578;2023-04-06T08:53:56;99876.56;;;9.37;46.43
47883;BME280;37739;50.350;7.578;2023-04-06T08:56:25;99875.78;;;9.38;45.64
47883;BME280;37739;50.350;7.578;2023-04-06T08:58:55;99878.59;;;9.44;45.65
47883;BME280;37739;50.350;7.578;2023-04-06T09:01:24;99872.72;;;9.47;46.29
47883;BME280;37739;50.350;7.578;2023-04-06T09:03:56;99871.53;;;9.38;45.14
47883;BME280;37739;50.350;7.578;2023-04-06T09:06:22;99869.72;;;9.36;45.95
47883;BME280;37739;50.350;7.578;2023-04-06T09:08:49;99869.19;;;9.43;46.26
47883;BME280;37739;50.350;7.578;2023-04-06T09:11:15;99873.31;;;9.41;45.96
47883;BME280;37739;50.350;7.578;2023-04-06T09:13:56;99872.94;;;9.51;46.00
47883;BME280;37739;50.350;7.578;2023-04-06T09:16:22;99869.63;;;9.75;45.23
47883;BME280;37739;50.350;7.578;2023-04-06T09:18:49;99863.06;;;10.02;45.58
47883;BME280;37739;50.350;7.578;2023-04-06T09:21:19;99853.94;;;10.09;45.18
47883;BME280;37739;50.350;7.578;2023-04-06T09:23:44;99856.75;;;10.15;45.09
47883;BME280;37739;50.350;7.578;2023-04-06T09:26:15;99857.56;;;10.14;45.30
47883;BME280;37739;50.350;7.578;2023-04-06T09:28:52;99854.06;;;10.12;45.47
47883;BME280;37739;50.350;7.578;2023-04-06T09:31:31;99851.97;;;10.25;44.46
47883;BME280;37739;50.350;7.578;2023-04-06T09:34:00;99853.47;;;10.40;44.57
47883;BME280;37739;50.350;7.578;2023-04-06T09:36:33;99843.84;;;10.57;44.29
47883;BME280;37739;50.350;7.578;2023-04-06T09:39:04;99846.66;;;10.64;44.39
47883;BME280;37739;50.350;7.578;2023-04-06T09:41:35;99841.03;;;10.74;44.01
47883;BME280;37739;50.350;7.578;2023-04-06T09:44:05;99834.88;;;10.93;43.22
47883;BME280;37739;50.350;7.578;2023-04-06T09:46:38;99843.53;;;11.19;43.29
47883;BME280;37739;50.350;7.578;2023-04-06T09:49:04;99839.84;;;11.36;42.99
47883;BME280;37739;50.350;7.578;2023-04-06T09:51:34;99825.56;;;11.45;42.23
47883;BME280;37739;50.350;7.578;2023-04-06T09:54:01;99830.63;;;11.43;42.21
47883;BME280;37739;50.350;7.578;2023-04-06T09:56:45;99830.81;;;11.48;41.06
47883;BME280;37739;50.350;7.578;2023-04-06T09:59:33;99834.19;;;11.47;40.57
47883;BME280;37739;50.350;7.578;2023-04-06T10:02:05;99822.44;;;11.53;41.94
47883;BME280;37739;50.350;7.578;2023-04-06T10:07:09;99817.94;;;11.73;40.57
47883;BME280;37739;50.350;7.578;2023-04-06T10:09:39;99824.09;;;12.04;40.73
47883;BME280;37739;50.350;7.578;2023-04-06T10:12:08;99816.28;;;12.28;40.20
47883;BME280;37739;50.350;7.578;2023-04-06T10:14:34;99814.81;;;12.36;39.66
47883;BME280;37739;50.350;7.578;2023-04-06T10:17:04;99805.56;;;12.43;39.25
47883;BME280;37739;50.350;7.578;2023-04-06T10:19:37;99817.31;;;12.64;39.01
47883;BME280;37739;50.350;7.578;2023-04-06T10:22:06;99811.28;;;12.63;38.33
47883;BME280;37739;50.350;7.578;2023-04-06T10:24:35;99816.50;;;12.66;38.42
47883;BME280;37739;50.350;7.578;2023-04-06T10:27:06;99808.28;;;12.78;38.45
47883;BME280;37739;50.350;7.578;2023-04-06T10:29:45;99810.06;;;12.81;36.16
47883;BME280;37739;50.350;7.578;2023-04-06T10:32:15;99816.50;;;12.96;38.21
47883;BME280;37739;50.350;7.578;2023-04-06T10:34:43;99807.16;;;13.00;38.00
47883;BME280;37739;50.350;7.578;2023-04-06T10:37:15;99807.81;;;12.91;37.44
47883;BME280;37739;50.350;7.578;2023-04-06T10:39:51;99809.97;;;12.77;37.74
47883;BME280;37739;50.350;7.578;2023-04-06T10:42:35;99811.41;;;12.68;37.73
47883;BME280;37739;50.350;7.578;2023-04-06T10:45:07;99808.44;;;12.54;37.93
47883;BME280;37739;50.350;7.578;2023-04-06T10:47:41;99812.84;;;12.58;37.78
47883;BME280;37739;50.350;7.578;2023-04-06T10:50:07;99810.78;;;12.75;38.51
47883;BME280;37739;50.350;7.578;2023-04-06T10:52:35;99805.25;;;12.93;37.88
47883;BME280;37739;50.350;7.578;2023-04-06T10:55:01;99808.38;;;13.13;37.86
47883;BME280;37739;50.350;7.578;2023-04-06T10:57:30;99803.34;;;13.18;36.71
47883;BME280;37739;50.350;7.578;2023-04-06T10:59:58;99807.44;;;13.09;36.23
47883;BME280;37739;50.350;7.578;2023-04-06T11:02:26;99800.44;;;13.37;37.02
47883;BME280;37739;50.350;7.578;2023-04-06T11:04:58;99798.34;;;13.55;36.55
47883;BME280;37739;50.350;7.578;2023-04-06T11:07:27;99798.78;;;13.74;34.94
47883;BME280;37739;50.350;7.578;2023-04-06T11:09:57;99794.34;;;14.05;35.57
47883;BME280;37739;50.350;7.578;2023-04-06T11:12:27;99788.81;;;14.27;34.57
47883;BME280;37739;50.350;7.578;2023-04-06T11:15:02;99783.25;;;14.48;34.61
47883;BME280;37739;50.350;7.578;2023-04-06T11:17:35;99799.94;;;14.64;34.62
47883;BME280;37739;50.350;7.578;2023-04-06T11:20:02;99789.94;;;14.78;34.29
47883;BME280;37739;50.350;7.578;2023-04-06T11:22:30;99784.91;;;14.87;34.29
47883;BME280;37739;50.350;7.578;2023-04-06T11:25:08;99785.22;;;15.03;33.86
47883;BME280;37739;50.350;7.578;2023-04-06T11:27:34;99783.63;;;15.09;34.50
47883;BME280;37739;50.350;7.578;2023-04-06T11:30:00;99784.56;;;15.13;34.31
47883;BME280;37739;50.350;7.578;2023-04-06T11:32:28;99774.25;;;15.15;34.03
47883;BME280;37739;50.350;7.578;2023-04-06T11:34:54;99775.78;;;15.03;33.56
47883;BME280;37739;50.350;7.578;2023-04-06T11:37:26;99770.94;;;14.76;34.08
47883;BME280;37739;50.350;7.578;2023-04-06T11:39:54;99770.66;;;14.62;33.79
47883;BME280;37739;50.350;7.578;2023-04-06T11:42:27;99773.63;;;14.40;34.42
47883;BME280;37739;50.350;7.578;2023-04-06T11:44:58;99768.53;;;14.44;34.59
47883;BME280;37739;50.350;7.578;2023-04-06T11:47:28;99763.81;;;14.63;34.87
47883;BME280;37739;50.350;7.578;2023-04-06T11:50:05;99767.16;;;14.60;33.95
47883;BME280;37739;50.350;7.578;2023-04-06T11:52:33;99763.75;;;14.61;34.75
47883;BME280;37739;50.350;7.578;2023-04-06T11:55:10;99762.03;;;14.62;34.16
47883;BME280;37739;50.350;7.578;2023-04-06T11:57:41;99764.75;;;14.68;34.59
47883;BME280;37739;50.350;7.578;2023-04-06T12:00:10;99761.53;;;14.80;34.09
47883;BME280;37739;50.350;7.578;2023-04-06T12:02:37;99757.94;;;14.71;34.12
47883;BME280;37739;50.350;7.578;2023-04-06T12:05:03;99753.75;;;14.77;34.57
47883;BME280;37739;50.350;7.578;2023-04-06T12:07:30;99747.84;;;14.84;34.53
47883;BME280;37739;50.350;7.578;2023-04-06T12:10:02;99749.66;;;14.89;34.63
47883;BME280;37739;50.350;7.578;2023-04-06T12:12:28;99747.09;;;14.91;34.23
47883;BME280;37739;50.350;7.578;2023-04-06T12:14:54;99753.91;;;14.87;34.12
47883;BME280;37739;50.350;7.578;2023-04-06T12:17:20;99757.16;;;14.76;34.47
47883;BME280;37739;50.350;7.578;2023-04-06T12:19:47;99758.09;;;14.79;34.61
47883;BME280;37739;50.350;7.578;2023-04-06T12:22:17;99755.22;;;14.65;34.50
47883;BME280;37739;50.350;7.578;2023-04-06T12:24:42;99753.47;;;14.64;34.79
47883;BME280;37739;50.350;7.578;2023-04-06T12:27:08;99754.34;;;14.63;34.29
47883;BME280;37739;50.350;7.578;2023-04-06T12:29:39;99754.25;;;14.60;34.12
47883;BME280;37739;50.350;7.578;2023-04-06T12:32:05;99752.53;;;14.59;34.08
47883;BME280;37739;50.350;7.578;2023-04-06T12:34:31;99750.81;;;14.60;34.64
47883;BME280;37739;50.350;7.578;2023-04-06T12:36:59;99755.28;;;14.67;34.39
47883;BME280;37739;50.350;7.578;2023-04-06T12:39:25;99750.03;;;14.64;34.70
47883;BME280;37739;50.350;7.578;2023-04-06T12:41:52;99745.09;;;14.75;34.27
47883;BME280;37739;50.350;7.578;2023-04-06T12:44:20;99742.59;;;14.79;34.21
47883;BME280;37739;50.350;7.578;2023-04-06T12:46:47;99744.50;;;14.89;34.71
47883;BME280;37739;50.350;7.578;2023-04-06T12:49:13;99743.75;;;14.97;34.38
47883;BME280;37739;50.350;7.578;2023-04-06T12:51:44;99742.13;;;15.00;33.34
47883;BME280;37739;50.350;7.578;2023-04-06T12:54:09;99747.53;;;15.14;33.11
47883;BME280;37739;50.350;7.578;2023-04-06T12:56:37;99739.72;;;15.11;33.63
47883;BME280;37739;50.350;7.578;2023-04-06T12:59:02;99742.22;;;15.06;33.93
47883;BME280;37739;50.350;7.578;2023-04-06T13:01:30;99734.41;;;15.02;33.06
47883;BME280;37739;50.350;7.578;2023-04-06T13:03:56;99731.81;;;15.02;33.38
47883;BME280;37739;50.350;7.578;2023-04-06T13:06:23;99729.41;;;15.12;33.92
47883;BME280;37739;50.350;7.578;2023-04-06T13:08:54;99727.69;;;15.11;33.14
47883;BME280;37739;50.350;7.578;2023-04-06T13:11:20;99723.31;;;15.07;33.31